Time;durP1;ratioP1;P1;durP2;ratioP2;P2;SDS_P1;SDS_P2;PMS_P1;PMS_P2;Temp;Humidity;BMP_temperature;BMP_pressure;BME280_temperature;BME280_humidity;BME280_pressure;Samples;Min_cycle;Max_cycle;Signal;HPM_P1;HPM_P2
2024/02/21 00:00:17;;;;;;;9.40;4.70;;;;;;;4.65;63.03;100885.66;105276;1256;60132;-60
2024/02/21 00:02:44;;;;;;;12.50;6.00;;;;;;;4.61;63.07;100881.31;105281;1259;62465;-61
2024/02/21 00:05:12;;;;;;;12.80;5.10;;;;;;;4.57;63.14;100881.17;105164;1259;60600;-60
2024/02/21 00:07:39;;;;;;;17.00;4.40;;;;;;;4.60;63.00;100881.21;105371;1259;60367;-63
2024/02/21 00:10:08;;;;;;;12.90;4.40;;;;;;;4.67;62.90;100882.27;105469;1257;65006;-60
2024/02/21 00:12:36;;;;;;;10.90;3.70;;;;;;;4.73;62.89;100878.33;105309;1259;61624;-61
2024/02/21 00:15:06;;;;;;;13.40;4.80;;;;;;;4.79;62.90;100871.93;105197;1257;63758;-58
2024/02/21 00:17:33;;;;;;;10.10;4.00;;;;;;;4.85;62.93;100866.83;105195;1254;60562;-59
2024/02/21 00:20:01;;;;;;;13.00;6.90;;;;;;;4.86;63.01;100866.77;105162;1254;60546;-59
2024/02/21 00:22:31;;;;;;;14.30;6.90;;;;;;;4.86;63.06;100866.59;105928;1259;64977;-59
2024/02/21 00:24:59;;;;;;;12.40;4.90;;;;;;;4.87;63.15;100863.45;105847;1258;60526;-60
2024/02/21 00:27:27;;;;;;;12.40;5.20;;;;;;;4.85;63.15;100861.23;105999;1254;63705;-62
2024/02/21 00:29:55;;;;;;;13.40;5.30;;;;;;;4.84;63.15;100856.92;105804;1259;60553;-56
2024/02/21 00:32:22;;;;;;;11.60;5.90;;;;;;;4.83;63.21;100850.92;105291;1258;60424;-56
2024/02/21 00:34:50;;;;;;;10.60;5.20;;;;;;;4.82;63.33;100851.31;105126;1254;63765;-58
2024/02/21 00:37:18;;;;;;;12.30;4.60;;;;;;;4.84;63.19;100847.21;105329;1254;61496;-58
2024/02/21 00:39:45;;;;;;;11.10;4.90;;;;;;;4.90;63.14;100843.27;105167;1254;63708;-56
2024/02/21 00:42:13;;;;;;;12.90;6.30;;;;;;;4.98;63.14;100842.36;105298;1257;60531;-58
2024/02/21 00:44:41;;;;;;;12.50;5.40;;;;;;;5.03;63.08;100835.48;105108;1259;60479;-59
2024/02/21 00:47:10;;;;;;;12.00;4.50;;;;;;;5.05;63.07;100832.83;105239;1260;65369;-60
2024/02/21 00:49:37;;;;;;;12.80;5.50;;;;;;;5.02;63.28;100831.05;105555;1260;61296;-60
2024/02/21 00:52:05;;;;;;;14.30;7.00;;;;;;;4.99;63.35;100831.20;105267;1260;62790;-59
2024/02/21 00:54:33;;;;;;;14.50;6.10;;;;;;;4.95;63.50;100828.97;105749;1259;60556;-59
2024/02/21 00:57:16;;;;;;;14.00;6.50;;;;;;;4.93;63.56;100825.91;105333;1254;60600;-58
2024/02/21 00:59:45;;;;;;;19.00;6.00;;;;;;;4.92;63.61;100821.43;105181;1257;64867;-58
2024/02/21 01:02:12;;;;;;;12.80;5.90;;;;;;;4.92;63.62;100817.11;105277;1254;61469;-58
2024/02/21 01:04:40;;;;;;;11.60;5.20;;;;;;;4.97;63.43;100815.09;105261;1254;74500;-60
2024/02/21 01:07:08;;;;;;;11.30;5.30;;;;;;;5.01;63.46;100811.95;105134;1254;60612;-59
2024/02/21 01:09:36;;;;;;;14.40;5.90;;;;;;;5.07;63.50;100812.17;105122;1254;60505;-59
2024/02/21 01:12:03;;;;;;;11.30;4.70;;;;;;;5.10;63.50;100811.15;105258;1259;64967;-60
2024/02/21 01:14:31;;;;;;;14.80;5.50;;;;;;;5.11;63.54;100811.46;105720;1254;61399;-63
2024/02/21 01:16:59;;;;;;;11.20;4.90;;;;;;;5.12;63.62;100811.41;105180;1260;63740;-60
2024/02/21 01:19:26;;;;;;;16.50;7.20;;;;;;;5.15;63.69;100806.92;105147;1260;63047;-59
2024/02/21 01:21:54;;;;;;;13.20;5.10;;;;;;;5.15;63.62;100806.40;105229;1259;60588;-59
2024/02/21 01:24:24;;;;;;;11.20;5.80;;;;;;;5.14;63.71;100807.15;105206;1254;64976;-61
2024/02/21 01:26:51;;;;;;;15.80;5.60;;;;;;;5.14;63.70;100804.56;105118;1259;60440;-60
2024/02/21 01:29:19;;;;;;;10.10;5.00;;;;;;;5.14;63.68;100802.80;105250;1254;63729;-60
2024/02/21 01:31:47;;;;;;;13.50;6.40;;;;;;;5.17;63.50;100800.90;105052;1260;60318;-59
2024/02/21 01:34:15;;;;;;;12.20;4.30;;;;;;;5.21;63.46;100801.05;106099;1254;60529;-59
2024/02/21 01:36:42;;;;;;;13.20;5.10;;;;;;;5.28;63.43;100798.96;104999;1255;63892;-60
2024/02/21 01:39:10;;;;;;;11.80;4.70;;;;;;;5.34;63.42;100799.50;105237;1259;61979;-60
2024/02/21 01:41:38;;;;;;;12.90;6.20;;;;;;;5.43;63.39;100797.85;105137;1260;62680;-59
2024/02/21 01:44:05;;;;;;;13.20;5.90;;;;;;;5.46;63.38;100794.73;105104;1260;60542;-59
2024/02/21 01:46:33;;;;;;;13.60;5.20;;;;;;;5.45;63.34;100790.29;105590;1258;60417;-60
2024/02/21 01:49:01;;;;;;;12.70;5.50;;;;;;;5.43;63.40;100789.84;105700;1254;63641;-59
2024/02/21 01:51:29;;;;;;;9.50;4.50;;;;;;;5.41;63.35;100792.71;105369;1257;61376;-59
2024/02/21 01:53:57;;;;;;;14.60;6.60;;;;;;;5.36;63.40;100793.98;105174;1260;71996;-59
2024/02/21 01:56:24;;;;;;;18.70;7.20;;;;;;;5.32;63.51;100795.40;105749;1254;60525;-60
2024/02/21 01:58:52;;;;;;;11.50;5.50;;;;;;;5.29;63.49;100792.98;105224;1260;60756;-59
2024/02/21 02:01:20;;;;;;;13.90;6.60;;;;;;;5.32;63.48;100788.12;105106;1254;63681;-59
2024/02/21 02:03:48;;;;;;;17.10;6.80;;;;;;;5.35;63.44;100786.73;105269;1260;69372;-58
2024/02/21 02:06:17;;;;;;;11.90;4.90;;;;;;;5.38;63.43;100787.81;105390;1260;62497;-58
2024/02/21 02:08:44;;;;;;;10.50;4.20;;;;;;;5.43;63.46;100786.89;105421;1259;60553;-58
2024/02/21 02:11:13;;;;;;;15.80;7.10;;;;;;;5.45;63.52;100788.71;105069;1260;60642;-58
2024/02/21 02:13:41;;;;;;;15.40;6.30;;;;;;;5.43;63.60;100794.88;105316;1255;63727;-56
2024/02/21 02:16:09;;;;;;;14.50;6.00;;;;;;;5.41;63.64;100791.14;105528;1259;60506;-61
2024/02/21 02:18:36;;;;;;;14.30;5.60;;;;;;;5.40;63.77;100788.73;105592;1259;62543;-58
2024/02/21 02:21:05;;;;;;;13.20;6.00;;;;;;;5.40;63.83;100792.77;106352;1255;60453;-58
2024/02/21 02:23:33;;;;;;;12.00;5.10;;;;;;;5.38;63.92;100789.39;105548;1263;60425;-60
2024/02/21 02:26:01;;;;;;;15.40;5.50;;;;;;;5.36;63.96;100789.15;105154;1254;64000;-58
2024/02/21 02:28:29;;;;;;;14.60;6.50;;;;;;;5.41;63.81;100787.66;105812;1259;60370;-56
2024/02/21 02:30:57;;;;;;;17.10;6.80;;;;;;;5.47;63.83;100786.85;105748;1259;63048;-57
2024/02/21 02:33:25;;;;;;;12.40;7.10;;;;;;;5.53;63.79;100788.95;105036;1258;60555;-56
2024/02/21 02:35:52;;;;;;;12.90;5.10;;;;;;;5.59;63.78;100790.89;105163;1260;62102;-57
2024/02/21 02:38:20;;;;;;;14.10;5.30;;;;;;;5.65;63.79;100790.45;105278;1254;65369;-55
2024/02/21 02:40:48;;;;;;;16.70;6.20;;;;;;;5.66;63.92;100795.27;105207;1261;60370;-56
2024/02/21 02:43:16;;;;;;;15.00;6.60;;;;;;;5.65;63.96;100796.34;105215;1257;62528;-55
2024/02/21 02:45:45;;;;;;;13.90;6.50;;;;;;;5.64;63.88;100797.98;105351;1254;60398;-56
2024/02/21 02:48:13;;;;;;;15.20;6.60;;;;;;;5.60;63.90;100800.93;105115;1256;60354;-57
2024/02/21 02:50:41;;;;;;;15.10;7.40;;;;;;;5.54;63.90;100801.97;105126;1260;65078;-58
2024/02/21 02:53:09;;;;;;;11.50;5.00;;;;;;;5.53;63.94;100799.77;105328;1260;60527;-57
2024/02/21 02:55:37;;;;;;;10.90;5.90;;;;;;;5.58;63.99;100803.30;105187;1254;63682;-59
2024/02/21 02:58:04;;;;;;;14.90;6.00;;;;;;;5.65;63.93;100804.14;108038;1254;60498;-60
2024/02/21 03:00:35;;;;;;;12.60;6.10;;;;;;;5.72;63.98;100802.73;105178;1267;60487;-59
2024/02/21 03:03:03;;;;;;;14.70;5.50;;;;;;;5.79;64.03;100804.84;105880;1253;63601;-57
2024/02/21 03:05:31;;;;;;;14.70;6.50;;;;;;;5.80;63.98;100806.02;107614;1254;61464;-59
2024/02/21 03:07:59;;;;;;;11.90;7.00;;;;;;;5.81;63.99;100803.89;105944;1254;62526;-58
2024/02/21 03:10:27;;;;;;;15.20;7.90;;;;;;;5.80;64.05;100805.67;105193;1260;60557;-59
2024/02/21 03:12:55;;;;;;;17.70;9.10;;;;;;;5.76;64.00;100808.28;106069;1257;60436;-58
2024/02/21 03:15:23;;;;;;;16.20;7.30;;;;;;;5.73;64.10;100809.46;105339;1254;65662;-58
2024/02/21 03:17:51;;;;;;;13.70;6.40;;;;;;;5.72;64.23;100810.76;105351;1254;61364;-58
2024/02/21 03:20:19;;;;;;;16.10;7.70;;;;;;;5.73;64.16;100812.98;105268;1259;62534;-58
2024/02/21 03:22:48;;;;;;;14.00;6.70;;;;;;;5.77;63.92;100811.38;105419;1260;60562;-59
2024/02/21 03:25:16;;;;;;;11.00;4.80;;;;;;;5.83;63.83;100811.07;105214;1254;60332;-61
2024/02/21 03:27:44;;;;;;;16.90;6.90;;;;;;;5.88;63.85;100812.55;105205;1258;65458;-58
2024/02/21 03:30:12;;;;;;;12.30;5.70;;;;;;;5.91;63.86;100814.06;105148;1260;61877;-60
2024/02/21 03:32:40;;;;;;;17.90;7.70;;;;;;;5.95;63.79;100816.51;106233;1257;63683;-59
2024/02/21 03:35:08;;;;;;;14.20;7.00;;;;;;;5.95;63.87;100818.06;105236;1260;60584;-62
2024/02/21 03:37:36;;;;;;;20.50;7.70;;;;;;;5.96;64.01;100818.58;105884;1260;60450;-62
2024/02/21 03:40:08;;;;;;;26.20;18.40;;;;;;;5.93;63.98;100817.33;105567;1259;63653;-60
2024/02/21 03:42:35;;;;;;;15.40;6.80;;;;;;;5.89;64.07;100818.39;105581;1260;60411;-60
2024/02/21 03:45:04;;;;;;;18.90;7.20;;;;;;;5.86;64.07;100819.77;105580;1257;63850;-57
2024/02/21 03:47:32;;;;;;;15.50;7.80;;;;;;;5.84;64.14;100820.73;105635;1260;60482;-60
2024/02/21 03:50:00;;;;;;;15.40;7.40;;;;;;;5.81;64.13;100818.45;105195;1258;60613;-60
2024/02/21 03:52:28;;;;;;;13.00;6.90;;;;;;;5.83;64.09;100815.40;105209;1260;63709;-60
2024/02/21 03:54:56;;;;;;;15.50;6.10;;;;;;;5.88;64.03;100815.98;105022;1259;62277;-60
2024/02/21 03:57:23;;;;;;;12.00;5.40;;;;;;;5.95;64.03;100814.42;105291;1259;63725;-61
2024/02/21 03:59:52;;;;;;;13.50;5.90;;;;;;;6.03;64.04;100816.65;105826;1260;60382;-60
2024/02/21 04:02:19;;;;;;;14.90;7.10;;;;;;;6.10;64.00;100825.63;105189;1259;60507;-61
2024/02/21 04:04:47;;;;;;;14.00;6.10;;;;;;;6.18;63.93;100824.20;105088;1258;63693;-61
2024/02/21 04:07:16;;;;;;;16.80;8.20;;;;;;;6.21;63.96;100821.92;105334;1260;60447;-57
2024/02/21 04:09:43;;;;;;;14.50;5.80;;;;;;;6.22;64.06;100822.23;105290;1260;62537;-58
2024/02/21 04:12:11;;;;;;;12.80;6.00;;;;;;;6.24;63.99;100821.27;105119;1257;63430;-61
2024/02/21 04:14:39;;;;;;;13.30;5.90;;;;;;;6.23;63.99;100826.19;104954;1263;60432;-56
2024/02/21 04:17:11;;;;;;;14.90;6.90;;;;;;;6.20;63.93;100828.95;105389;1259;63695;-58
2024/02/21 04:19:38;;;;;;;13.40;6.60;;;;;;;6.19;63.91;100830.08;105099;1260;60975;-61
2024/02/21 04:22:06;;;;;;;14.60;7.70;;;;;;;6.15;63.89;100834.64;105214;1261;62525;-60
2024/02/21 04:24:34;;;;;;;15.70;6.30;;;;;;;6.12;63.83;100837.36;105201;1257;60526;-59
2024/02/21 04:27:02;;;;;;;17.50;6.50;;;;;;;6.10;63.94;100834.02;105644;1260;60310;-59
2024/02/21 04:29:30;;;;;;;11.30;5.90;;;;;;;6.11;63.90;100832.90;105808;1260;64963;-57
2024/02/21 04:31:58;;;;;;;11.90;5.00;;;;;;;6.18;63.87;100830.84;105067;1260;60510;-59
2024/02/21 04:34:26;;;;;;;13.20;6.00;;;;;;;6.25;63.87;100830.80;105790;1261;62481;-58
2024/02/21 04:36:54;;;;;;;14.20;5.50;;;;;;;6.33;63.91;100835.58;105777;1257;60539;-58
2024/02/21 04:39:22;;;;;;;11.50;5.80;;;;;;;6.42;63.96;100834.91;105247;1260;60388;-57
2024/02/21 04:41:49;;;;;;;14.60;7.00;;;;;;;6.52;63.92;100833.98;105355;1260;63630;-58
2024/02/21 04:44:21;;;;;;;15.90;6.20;;;;;;;6.59;63.84;100838.48;105226;1259;60506;-60
2024/02/21 04:46:49;;;;;;;18.70;7.60;;;;;;;6.62;63.84;100839.89;105290;1259;62544;-71
2024/02/21 04:49:17;;;;;;;15.30;7.60;;;;;;;6.63;63.82;100839.64;105047;1260;60454;-58
2024/02/21 04:51:45;;;;;;;18.70;8.70;;;;;;;6.62;63.77;100840.75;105099;1260;59450;-57
2024/02/21 04:54:12;;;;;;;18.10;8.40;;;;;;;6.59;63.67;100842.15;106125;1255;64868;-58
2024/02/21 04:56:40;;;;;;;13.50;6.80;;;;;;;6.56;63.65;100843.89;105211;1254;61327;-58
2024/02/21 04:59:07;;;;;;;25.90;11.80;;;;;;;6.57;63.70;100845.90;105184;1258;63790;-59
2024/02/21 05:01:35;;;;;;;66.40;54.90;;;;;;;6.60;63.61;100845.08;105528;1254;60351;-58
2024/02/21 05:04:04;;;;;;;40.40;23.90;;;;;;;6.59;63.46;100849.79;105194;1254;60962;-57
2024/02/21 05:06:31;;;;;;;34.30;19.10;;;;;;;6.62;63.15;100850.89;105629;1254;63641;-59
2024/02/21 05:08:59;;;;;;;19.70;12.30;;;;;;;6.63;62.93;100852.35;105240;1260;60439;-58
2024/02/21 05:11:27;;;;;;;24.70;13.00;;;;;;;6.65;62.97;100851.08;105131;1254;62899;-58
2024/02/21 05:13:55;;;;;;;19.00;7.40;;;;;;;6.69;62.96;100852.92;105169;1260;60504;-60
2024/02/21 05:16:23;;;;;;;15.20;7.90;;;;;;;6.74;62.98;100852.65;105217;1260;60338;-58
2024/02/21 05:18:52;;;;;;;16.10;7.60;;;;;;;6.80;62.89;100855.05;106877;1257;65001;-59
2024/02/21 05:21:20;;;;;;;29.10;22.10;;;;;;;6.83;62.82;100856.48;105204;1259;60437;-59
2024/02/21 05:23:47;;;;;;;39.30;21.50;;;;;;;6.81;62.81;100858.52;105120;1259;64291;-55
2024/02/21 05:26:22;;;;;;;21.30;11.10;;;;;;;6.78;62.87;100858.69;105206;1258;60548;-62
2024/02/21 05:28:50;;;;;;;43.80;26.10;;;;;;;6.77;62.87;100854.73;105252;1259;60393;-59
2024/02/21 05:31:18;;;;;;;32.50;17.10;;;;;;;6.75;62.85;100856.93;105213;1259;64882;-61
2024/02/21 05:33:45;;;;;;;44.80;38.10;;;;;;;6.70;62.81;100859.99;105081;1261;60474;-58
2024/02/21 05:36:13;;;;;;;22.80;13.60;;;;;;;6.66;62.81;100860.23;105158;1259;64535;-59
2024/02/21 05:38:41;;;;;;;14.70;7.30;;;;;;;6.67;62.77;100857.72;105405;1264;60571;-59
2024/02/21 05:41:08;;;;;;;11.80;4.90;;;;;;;6.72;62.68;100856.25;104947;1254;60611;-59
2024/02/21 05:43:39;;;;;;;14.70;5.30;;;;;;;6.76;62.64;100860.20;106170;1257;64914;-59
2024/02/21 05:46:07;;;;;;;15.60;5.90;;;;;;;6.79;62.58;100865.61;105202;1259;70817;-58
2024/02/21 05:48:34;;;;;;;22.70;16.60;;;;;;;6.80;62.63;100868.48;104945;1261;62546;-59
2024/02/21 05:51:06;;;;;;;15.20;6.90;;;;;;;6.81;62.68;100866.34;104914;1268;60573;-59
2024/02/21 05:53:34;;;;;;;14.70;5.70;;;;;;;6.81;62.70;100870.41;105310;1260;60453;-59
2024/02/21 05:56:02;;;;;;;13.40;6.20;;;;;;;6.79;62.65;100873.81;105627;1261;64931;-63
2024/02/21 05:58:31;;;;;;;16.50;6.70;;;;;;;6.79;62.72;100871.55;106441;1254;62024;-63
2024/02/21 06:01:01;;;;;;;13.20;6.80;;;;;;;6.78;62.75;100872.11;105191;1260;63723;-63
2024/02/21 06:03:29;;;;;;;15.40;6.50;;;;;;;6.77;62.82;100873.73;106754;1254;60407;-62
2024/02/21 06:05:59;;;;;;;15.60;8.00;;;;;;;6.76;62.76;100874.81;105824;1254;60539;-63
2024/02/21 06:08:27;;;;;;;33.30;19.00;;;;;;;6.75;62.73;100875.08;105732;1254;64955;-62
2024/02/21 06:10:54;;;;;;;63.80;33.60;;;;;;;6.71;62.81;100878.09;105137;1259;60606;-60
2024/02/21 06:13:23;;;;;;;31.80;17.30;;;;;;;6.71;62.79;100881.23;107568;1254;64317;-60
2024/02/21 06:15:51;;;;;;;23.50;13.90;;;;;;;6.75;62.63;100880.84;105361;1255;60578;-61
2024/02/21 06:18:19;;;;;;;58.70;48.70;;;;;;;6.78;62.56;100880.13;105358;1258;60457;-60
2024/02/21 06:20:47;;;;;;;21.90;11.50;;;;;;;6.82;62.55;100879.19;105210;1260;64062;-62
2024/02/21 06:23:18;;;;;;;18.30;7.40;;;;;;;6.87;62.55;100881.52;107714;1259;60549;-63
2024/02/21 06:25:47;;;;;;;12.90;6.10;;;;;;;6.91;62.52;100882.02;105152;1257;63789;-61
2024/02/21 06:28:15;;;;;;;11.60;6.30;;;;;;;6.92;62.50;100885.45;105498;1254;60559;-62
2024/02/21 06:30:43;;;;;;;12.90;6.60;;;;;;;6.90;62.53;100889.22;105118;1259;60457;-62
2024/02/21 06:33:10;;;;;;;27.10;18.00;;;;;;;6.87;62.62;100888.85;105059;1254;64911;-61
2024/02/21 06:35:40;;;;;;;38.30;10.30;;;;;;;6.84;62.71;100891.30;105045;1261;60460;-62
2024/02/21 06:38:08;;;;;;;13.20;6.40;;;;;;;6.80;62.69;100896.22;105703;1254;62427;-67
2024/02/21 06:40:39;;;;;;;11.90;6.00;;;;;;;6.75;62.67;100896.16;106102;1255;60463;-69
2024/02/21 06:43:07;;;;;;;15.00;6.80;;;;;;;6.73;62.68;100898.58;105611;1259;60555;-69
2024/02/21 06:45:34;;;;;;;15.40;5.40;;;;;;;6.74;62.70;100899.23;106130;1260;63869;-69
2024/02/21 06:48:02;;;;;;;13.90;5.20;;;;;;;6.75;62.70;100897.91;106004;1259;61325;-65
2024/02/21 06:50:30;;;;;;;13.80;5.90;;;;;;;6.77;62.83;100899.39;105836;1260;62542;-65
2024/02/21 06:52:58;;;;;;;24.50;17.60;;;;;;;6.74;62.95;100901.80;105241;1254;60405;-68
2024/02/21 06:55:25;;;;;;;13.30;5.50;;;;;;;6.71;63.06;100903.02;105919;1254;61006;-68
2024/02/21 06:57:53;;;;;;;12.60;5.60;;;;;;;6.70;63.16;100905.01;106156;1260;63652;-71
2024/02/21 07:00:21;;;;;;;12.20;5.50;;;;;;;6.68;63.33;100904.05;106005;1256;60254;-71
2024/02/21 07:02:51;;;;;;;22.70;16.50;;;;;;;6.67;63.47;100904.78;106175;1255;64049;-74
2024/02/21 07:05:18;;;;;;;13.60;5.70;;;;;;;6.70;63.36;100905.02;105627;1259;63038;-63
2024/02/21 07:07:46;;;;;;;14.80;6.20;;;;;;;6.76;63.30;100905.55;105014;1254;60466;-67
2024/02/21 07:10:14;;;;;;;16.10;5.70;;;;;;;6.82;63.28;100912.52;105894;1260;65518;-64
2024/02/21 07:12:43;;;;;;;17.80;5.70;;;;;;;6.89;63.32;100916.30;105060;1259;71367;-61
2024/02/21 07:15:11;;;;;;;25.00;17.30;;;;;;;6.93;63.22;100915.22;105493;1254;64682;-67
2024/02/21 07:17:38;;;;;;;15.00;7.50;;;;;;;6.90;63.33;100914.71;105113;1254;60543;-69
2024/02/21 07:20:07;;;;;;;17.90;8.20;;;;;;;6.86;63.58;100917.19;106229;1260;60578;-69
2024/02/21 07:22:34;;;;;;;13.00;5.70;;;;;;;6.87;63.66;100915.38;106591;1260;63782;-69
2024/02/21 07:25:02;;;;;;;24.10;18.10;;;;;;;6.89;63.69;100919.65;106149;1254;60364;-75
2024/02/21 07:27:33;;;;;;;10.20;4.70;;;;;;;6.90;63.65;100923.23;105599;1257;62469;-68
2024/02/21 07:30:01;;;;;;;14.10;7.00;;;;;;;6.94;63.70;100925.09;105703;1254;60651;-71
2024/02/21 07:32:30;;;;;;;14.30;6.30;;;;;;;6.99;63.42;100926.42;105499;1259;60425;-75
2024/02/21 07:34:58;;;;;;;11.30;5.40;;;;;;;7.04;63.44;100925.77;105462;1255;66925;-59
2024/02/21 07:37:27;;;;;;;10.40;4.60;;;;;;;7.09;63.35;100928.98;105281;1254;61812;-62
2024/02/21 07:39:59;;;;;;;17.00;6.20;;;;;;;7.11;63.41;100927.66;105876;1257;72883;-68
2024/02/21 07:42:27;;;;;;;23.00;17.10;;;;;;;7.11;63.62;100929.19;105974;1260;60529;-71
2024/02/21 07:44:56;;;;;;;15.30;9.00;;;;;;;7.13;63.55;100931.88;105853;1254;60718;-67
2024/02/21 07:47:24;;;;;;;16.00;7.50;;;;;;;7.14;63.49;100932.02;106043;1259;65272;-73
2024/02/21 07:49:52;;;;;;;67.20;42.80;;;;;;;7.16;63.63;100931.89;105549;1254;63853;-75
2024/02/21 07:52:20;;;;;;;38.50;17.80;;;;;;;7.21;63.62;100931.93;106046;1257;73624;-69
2024/02/21 07:54:48;;;;;;;23.80;11.60;;;;;;;7.29;63.34;100932.18;105062;1256;66049;-63
2024/02/21 07:57:15;;;;;;;28.20;20.20;;;;;;;7.35;63.20;100930.98;105536;1260;60812;-65
2024/02/21 07:59:43;;;;;;;15.90;7.10;;;;;;;7.40;63.18;100935.20;105798;1259;281393;-65
2024/02/21 08:03:26;;;;;;;43.10;23.60;;;;;;;7.09;64.20;100933.65;103035;1292;600447;-69
2024/02/21 08:05:54;;;;;;;21.20;9.60;;;;;;;7.46;63.39;100932.63;105344;1272;62437;-73
2024/02/21 08:08:22;;;;;;;18.30;9.00;;;;;;;7.52;63.40;100934.92;106092;1260;62213;-66
2024/02/21 08:10:49;;;;;;;25.30;17.80;;;;;;;7.57;63.21;100939.33;106096;1260;76807;-71
2024/02/21 08:13:17;;;;;;;14.00;6.10;;;;;;;7.58;63.27;100937.31;106174;1260;63600;-69
2024/02/21 08:15:45;;;;;;;22.50;16.40;;;;;;;7.59;63.25;100934.13;106102;1260;63863;-69
2024/02/21 08:18:13;;;;;;;10.50;6.00;;;;;;;7.59;63.28;100933.75;105977;1256;251969;-58
2024/02/21 08:20:41;;;;;;;11.80;6.10;;;;;;;7.66;63.10;100936.51;105394;1256;59962;-60
2024/02/21 08:23:08;;;;;;;12.30;5.20;;;;;;;7.75;62.89;100938.07;105424;1255;63829;-68
2024/02/21 08:25:36;;;;;;;19.80;14.80;;;;;;;7.84;62.88;100935.59;105920;1257;62130;-60
2024/02/21 08:28:05;;;;;;;13.70;6.00;;;;;;;7.93;62.82;100938.60;105244;1266;64841;-61
2024/02/21 08:30:33;;;;;;;21.10;16.50;;;;;;;7.99;62.77;100938.73;105915;1256;59553;-62
2024/02/21 08:33:01;;;;;;;11.60;5.70;;;;;;;8.01;62.74;100938.11;106071;1261;59617;-60
2024/02/21 08:35:29;;;;;;;18.70;14.20;;;;;;;8.03;62.80;100939.23;105279;1260;73684;-61
2024/02/21 08:37:56;;;;;;;12.90;5.60;;;;;;;8.01;62.62;100937.92;105236;1257;62353;-54
2024/02/21 08:40:24;;;;;;;12.50;6.70;;;;;;;7.97;62.55;100937.45;105339;1254;66035;-63
2024/02/21 08:42:53;;;;;;;21.70;14.70;;;;;;;7.98;62.76;100938.13;105119;1254;60293;-67
2024/02/21 08:45:21;;;;;;;14.90;8.70;;;;;;;8.06;62.88;100940.75;106903;1254;59731;-66
2024/02/21 08:47:49;;;;;;;9.70;5.00;;;;;;;8.20;62.85;100941.13;106375;1253;66452;-66
2024/02/21 08:50:17;;;;;;;12.50;4.50;;;;;;;8.32;62.59;100940.23;105442;1258;72772;-64
2024/02/21 08:52:56;;;;;;;22.10;14.50;;;;;;;8.41;62.42;100940.21;104992;1257;65894;-65
2024/02/21 08:55:24;;;;;;;12.50;6.10;;;;;;;8.50;62.38;100934.44;106675;1254;59736;-65
2024/02/21 08:57:52;;;;;;;17.90;13.50;;;;;;;8.56;62.23;100938.77;105171;1253;59759;-63
2024/02/21 09:00:24;;;;;;;12.50;4.60;;;;;;;8.59;62.09;100937.03;106283;1258;66410;-67
2024/02/21 09:02:52;;;;;;;18.30;14.10;;;;;;;8.60;62.12;100937.19;105455;1257;60314;-66
2024/02/21 09:05:20;;;;;;;13.80;6.40;;;;;;;8.61;62.02;100936.91;105175;1257;74889;-55
2024/02/21 09:07:48;;;;;;;21.10;14.80;;;;;;;8.68;62.03;100937.02;104920;1260;59764;-62
2024/02/21 09:10:16;;;;;;;12.90;5.20;;;;;;;8.74;62.04;100930.33;105220;1257;59848;-64
2024/02/21 09:12:44;;;;;;;12.40;6.80;;;;;;;8.86;61.81;100923.27;105257;1251;75648;-69
2024/02/21 09:15:12;;;;;;;17.60;13.10;;;;;;;9.03;61.72;100926.55;106068;1256;60647;-73
2024/02/21 09:17:39;;;;;;;19.30;12.70;;;;;;;9.23;61.74;100925.42;105384;1254;62531;-59
2024/02/21 09:20:08;;;;;;;17.30;13.20;;;;;;;9.42;61.52;100925.18;105176;1257;62787;-67
2024/02/21 09:22:37;;;;;;;18.30;12.80;;;;;;;9.55;61.07;100921.92;107673;1256;60265;-63
2024/02/21 09:25:06;;;;;;;10.10;5.40;;;;;;;9.63;60.94;100923.10;105780;1257;75542;-57
2024/02/21 09:27:33;;;;;;;17.40;13.20;;;;;;;9.72;60.68;100921.83;105493;1259;61868;-67
2024/02/21 09:30:01;;;;;;;12.80;5.40;;;;;;;9.79;60.46;100922.90;105029;1257;65892;-70
2024/02/21 09:32:29;;;;;;;15.90;12.10;;;;;;;9.85;60.05;100923.19;106312;1253;61502;-69
2024/02/21 09:34:57;;;;;;;16.00;11.90;;;;;;;9.89;59.64;100920.83;106626;1254;62277;-68
2024/02/21 09:37:31;;;;;;;9.60;4.30;;;;;;;9.98;59.44;100920.94;105864;1254;63124;-67
2024/02/21 09:39:59;;;;;;;16.90;11.00;;;;;;;10.04;58.73;100924.17;105757;1257;64088;-65
2024/02/21 09:42:47;;;;;;;14.10;11.00;;;;;;;10.02;58.40;100922.35;105811;1254;64114;-68
2024/02/21 09:45:24;;;;;;;15.10;11.70;;;;;;;9.97;58.17;100918.05;106234;1254;62470;-64
2024/02/21 09:48:29;;;;;;;15.60;12.10;;;;;;;9.90;58.29;100918.50;105386;1254;59791;-69
2024/02/21 09:51:02;;;;;;;10.70;4.40;;;;;;;9.82;58.55;100916.55;105130;1257;62961;-68
2024/02/21 09:53:30;;;;;;;17.10;13.30;;;;;;;9.73;58.57;100917.01;105852;1251;73197;-69
2024/02/21 09:55:58;;;;;;;18.30;13.00;;;;;;;9.66;58.77;100915.55;105870;1259;64554;-68
2024/02/21 09:58:27;;;;;;;14.90;10.80;;;;;;;9.64;59.06;100910.61;105316;1256;60552;-70
2024/02/21 10:00:57;;;;;;;9.70;4.40;;;;;;;9.66;59.16;100907.34;105368;1254;59661;-68
2024/02/21 10:03:28;;;;;;;19.60;12.90;;;;;;;9.72;59.17;100907.27;105791;1260;62822;-62
2024/02/21 10:05:56;;;;;;;18.80;12.50;;;;;;;9.73;58.88;100910.02;106492;1254;60599;-67
2024/02/21 10:08:24;;;;;;;16.90;12.90;;;;;;;9.67;58.84;100912.52;105685;1252;65967;-68
2024/02/21 10:10:56;;;;;;;18.20;6.30;;;;;;;9.59;58.99;100907.79;106420;1254;59667;-62
2024/02/21 10:13:27;;;;;;;16.10;11.60;;;;;;;9.53;59.04;100909.08;106326;1256;59624;-65
2024/02/21 10:16:03;;;;;;;16.40;6.90;;;;;;;9.48;59.25;100906.42;106601;1252;75707;-66
2024/02/21 10:18:32;;;;;;;13.60;6.10;;;;;;;9.46;59.38;100903.19;106629;1256;71449;-68
2024/02/21 10:21:07;;;;;;;16.80;12.10;;;;;;;9.49;59.49;100905.67;105093;1257;75146;-67
2024/02/21 10:23:45;;;;;;;8.50;3.90;;;;;;;9.55;59.25;100905.62;105754;1257;59892;-63
2024/02/21 10:26:13;;;;;;;17.70;11.60;;;;;;;9.63;59.23;100903.33;109210;1251;57847;-62
2024/02/21 10:28:42;;;;;;;17.50;11.90;;;;;;;9.73;59.28;100902.81;109290;1251;64732;-63
2024/02/21 10:31:10;;;;;;;16.20;12.10;;;;;;;9.80;59.19;100900.23;109296;1251;60357;-69
2024/02/21 10:33:39;;;;;;;15.70;11.50;;;;;;;9.82;58.94;100902.55;107074;1254;64619;-67
2024/02/21 10:36:11;;;;;;;15.80;12.30;;;;;;;9.79;58.65;100902.77;106830;1257;59676;-68
2024/02/21 10:38:39;;;;;;;11.10;5.00;;;;;;;9.72;58.77;100901.15;105725;1250;59595;-65
2024/02/21 10:41:07;;;;;;;18.50;12.50;;;;;;;9.64;58.76;100903.73;105599;1254;73769;-65
2024/02/21 10:43:40;;;;;;;10.20;5.50;;;;;;;9.60;58.92;100900.94;105627;1257;60770;-58
2024/02/21 10:46:12;;;;;;;16.90;11.20;;;;;;;9.58;58.91;100902.44;105696;1257;74928;-69
2024/02/21 10:48:43;;;;;;;9.10;3.70;;;;;;;9.61;58.97;100901.01;106216;1259;63829;-66
2024/02/21 10:51:17;;;;;;;14.10;10.80;;;;;;;9.64;58.80;100898.02;105962;1252;61632;-64
2024/02/21 10:54:00;;;;;;;13.60;10.30;;;;;;;9.62;58.85;100894.63;105543;1254;74846;-57
2024/02/21 10:56:30;;;;;;;15.40;11.60;;;;;;;9.63;59.11;100897.70;107888;1253;72425;-65
2024/02/21 10:58:58;;;;;;;8.10;3.80;;;;;;;9.65;59.04;100896.02;108406;1254;62617;-66
2024/02/21 11:01:27;;;;;;;16.20;11.60;;;;;;;9.62;58.99;100891.79;105961;1254;59732;-65
2024/02/21 11:03:57;;;;;;;16.30;11.10;;;;;;;9.60;59.00;100894.11;105901;1251;62313;-71
2024/02/21 11:06:25;;;;;;;10.50;4.30;;;;;;;9.56;58.93;100891.90;105114;1258;66242;-67
2024/02/21 11:09:09;;;;;;;17.20;12.00;;;;;;;9.54;58.88;100889.40;106857;1254;60326;-65
2024/02/21 11:11:42;;;;;;;9.80;4.90;;;;;;;9.58;58.90;100890.88;105663;1254;63967;-70
2024/02/21 11:14:13;;;;;;;17.60;11.60;;;;;;;9.63;58.90;100884.55;105321;1254;60643;-64
2024/02/21 11:16:42;;;;;;;15.50;11.20;;;;;;;9.66;58.88;100889.97;105201;1251;62165;-58
2024/02/21 11:19:22;;;;;;;11.20;4.50;;;;;;;9.66;58.88;100887.15;105430;1254;74019;-64
2024/02/21 11:21:50;;;;;;;16.40;11.80;;;;;;;9.63;58.87;100885.80;109243;1251;63753;-58